Time;durP1;ratioP1;P1;durP2;ratioP2;P2;SDS_P1;SDS_P2;PMS_P1;PMS_P2;Temp;Humidity;BMP_temperature;BMP_pressure;BME280_temperature;BME280_humidity;BME280_pressure;Samples;Min_cycle;Max_cycle;Signal;HPM_P1;HPM_P2
2024/01/11 00:00:48;;;;;;;7.33;6.07;;;;;;;;;;5069426;28;20465;-85
2024/01/11 00:03:16;;;;;;;8.83;6.77;;;;;;;;;;5070797;28;20440;-85
2024/01/11 00:05:45;;;;;;;6.27;5.53;;;;;;;;;;5069983;28;20463;-85
2024/01/11 00:08:13;;;;;;;8.60;6.57;;;;;;;;;;5071350;28;20518;-85
2024/01/11 00:10:43;;;;;;;8.77;7.10;;;;;;;;;;5070496;28;20505;-85
2024/01/11 00:13:12;;;;;;;6.37;5.80;;;;;;;;;;5070462;28;20462;-85
2024/01/11 00:15:40;;;;;;;5.73;5.13;;;;;;;;;;5071282;28;20447;-84
2024/01/11 00:18:09;;;;;;;8.30;6.23;;;;;;;;;;5069662;28;20472;-85
2024/01/11 00:20:38;;;;;;;8.67;7.10;;;;;;;;;;5071042;28;20427;-85
2024/01/11 00:23:09;;;;;;;4.83;4.43;;;;;;;;;;5070555;28;20473;-85
2024/01/11 00:25:37;;;;;;;7.27;6.57;;;;;;;;;;5070108;28;20486;-85
2024/01/11 00:28:07;;;;;;;5.47;5.00;;;;;;;;;;5070837;28;20431;-85
2024/01/11 00:30:36;;;;;;;6.47;5.97;;;;;;;;;;5070755;28;20427;-85
2024/01/11 00:33:06;;;;;;;4.03;3.67;;;;;;;;;;5069014;28;20439;-85
2024/01/11 00:35:35;;;;;;;10.23;7.80;;;;;;;;;;5070707;28;20438;-85
2024/01/11 00:38:04;;;;;;;7.43;7.13;;;;;;;;;;5070781;28;20469;-85
2024/01/11 00:40:32;;;;;;;3.93;3.73;;;;;;;;;;5070305;28;20194;-85
2024/01/11 00:43:01;;;;;;;29.47;9.47;;;;;;;;;;5069141;28;20230;-85
2024/01/11 00:45:31;;;;;;;4.17;3.77;;;;;;;;;;5069451;28;20216;-85
2024/01/11 00:47:59;;;;;;;5.10;4.37;;;;;;;;;;5070833;28;20467;-85
2024/01/11 00:50:28;;;;;;;7.87;5.30;;;;;;;;;;5070363;28;20213;-85
2024/01/11 00:52:56;;;;;;;9.87;7.37;;;;;;;;;;5069813;28;20444;-85
2024/01/11 00:55:25;;;;;;;9.93;9.00;;;;;;;;;;5069086;28;20517;-85
2024/01/11 00:57:53;;;;;;;8.97;7.03;;;;;;;;;;5070422;28;20506;-85
2024/01/11 01:00:22;;;;;;;10.30;8.70;;;;;;;;;;5070760;28;20435;-85
2024/01/11 01:02:52;;;;;;;16.83;10.37;;;;;;;;;;5069269;28;20443;-86
2024/01/11 01:05:23;;;;;;;11.93;9.37;;;;;;;;;;5069495;28;20443;-85
2024/01/11 01:07:52;;;;;;;9.47;7.23;;;;;;;;;;5070511;28;20532;-85
2024/01/11 01:10:21;;;;;;;12.30;8.33;;;;;;;;;;5069212;28;20444;-85
2024/01/11 01:12:49;;;;;;;22.77;15.63;;;;;;;;;;5069083;28;20470;-85
2024/01/11 01:15:18;;;;;;;11.27;10.13;;;;;;;;;;5072478;28;20467;-85
2024/01/11 01:17:46;;;;;;;12.03;7.77;;;;;;;;;;5074142;28;20569;-85
2024/01/11 01:20:16;;;;;;;8.13;4.73;;;;;;;;;;5072589;28;20505;-85
2024/01/11 01:22:45;;;;;;;14.30;10.43;;;;;;;;;;5072167;28;20453;-85
2024/01/11 01:25:13;;;;;;;11.47;9.83;;;;;;;;;;5072021;28;20447;-85
2024/01/11 01:27:42;;;;;;;16.77;13.27;;;;;;;;;;5072732;28;20527;-85
2024/01/11 01:30:11;;;;;;;15.30;10.47;;;;;;;;;;5073649;28;20217;-85
2024/01/11 01:32:43;;;;;;;15.53;11.63;;;;;;;;;;5073587;28;20479;-85
2024/01/11 01:35:12;;;;;;;9.37;7.50;;;;;;;;;;5072000;28;20463;-85
2024/01/11 01:37:42;;;;;;;8.80;7.77;;;;;;;;;;5073865;28;20596;-85
2024/01/11 01:40:11;;;;;;;13.27;7.00;;;;;;;;;;5072277;28;20451;-85
2024/01/11 01:42:42;;;;;;;11.83;9.13;;;;;;;;;;5073702;28;20459;-85
2024/01/11 01:45:11;;;;;;;16.80;11.80;;;;;;;;;;5072007;28;20454;-85
2024/01/11 01:47:40;;;;;;;16.07;9.50;;;;;;;;;;5072665;28;20444;-85
2024/01/11 01:50:12;;;;;;;10.40;7.77;;;;;;;;;;5072076;28;20462;-85
2024/01/11 01:52:44;;;;;;;14.80;10.23;;;;;;;;;;5072322;28;20463;-85
2024/01/11 01:55:13;;;;;;;17.50;12.33;;;;;;;;;;5072734;28;20428;-85
2024/01/11 01:57:42;;;;;;;14.17;10.70;;;;;;;;;;5071735;28;20487;-85
2024/01/11 02:00:12;;;;;;;15.73;9.20;;;;;;;;;;5072021;28;20753;-85
2024/01/11 02:02:41;;;;;;;11.33;8.63;;;;;;;;;;5072194;28;20509;-85
2024/01/11 02:05:11;;;;;;;12.83;9.00;;;;;;;;;;5072595;28;20436;-85
2024/01/11 02:07:42;;;;;;;20.47;13.27;;;;;;;;;;5072711;28;20206;-85
2024/01/11 02:10:12;;;;;;;5.80;5.30;;;;;;;;;;5071902;28;20444;-85
2024/01/11 02:12:41;;;;;;;14.33;9.90;;;;;;;;;;5072344;28;20483;-85
2024/01/11 02:15:10;;;;;;;11.80;8.60;;;;;;;;;;5071477;28;20549;-85
2024/01/11 02:17:41;;;;;;;15.63;10.90;;;;;;;;;;5071651;28;20483;-85
2024/01/11 02:20:10;;;;;;;15.43;11.30;;;;;;;;;;5071456;28;20443;-85
2024/01/11 02:22:42;;;;;;;18.57;12.50;;;;;;;;;;5073229;28;20444;-85
2024/01/11 02:25:12;;;;;;;6.30;5.70;;;;;;;;;;5071914;28;20527;-85
2024/01/11 02:27:47;;;;;;;12.43;8.93;;;;;;;;;;5072853;28;20440;-85
2024/01/11 02:30:16;;;;;;;17.97;10.70;;;;;;;;;;5072802;28;20439;-85
2024/01/11 02:32:46;;;;;;;20.40;11.80;;;;;;;;;;5072759;28;20440;-85
2024/01/11 02:35:15;;;;;;;9.20;8.30;;;;;;;;;;5070887;28;20474;-85
2024/01/11 02:37:44;;;;;;;15.00;8.13;;;;;;;;;;5070882;28;20216;-85
2024/01/11 02:40:15;;;;;;;3.87;3.67;;;;;;;;;;5072040;28;20436;-85
2024/01/11 02:42:43;;;;;;;6.17;5.17;;;;;;;;;;5071251;28;20543;-85
2024/01/11 02:45:12;;;;;;;3.53;3.23;;;;;;;;;;5070627;28;20440;-85
2024/01/11 02:47:44;;;;;;;21.77;13.77;;;;;;;;;;5071818;28;20443;-85
2024/01/11 02:50:12;;;;;;;10.00;8.43;;;;;;;;;;5070660;28;20468;-85
2024/01/11 02:52:41;;;;;;;4.70;3.90;;;;;;;;;;5072301;28;20470;-85
2024/01/11 02:55:10;;;;;;;16.37;11.80;;;;;;;;;;5071919;28;20284;-85
2024/01/11 02:57:40;;;;;;;12.93;10.73;;;;;;;;;;5071169;28;20481;-85
2024/01/11 03:00:11;;;;;;;9.87;7.63;;;;;;;;;;5070633;28;20269;-85
2024/01/11 03:02:41;;;;;;;8.23;6.77;;;;;;;;;;5070918;28;20454;-85
2024/01/11 03:05:11;;;;;;;10.43;7.83;;;;;;;;;;5070318;28;20448;-85
2024/01/11 03:07:42;;;;;;;9.93;8.67;;;;;;;;;;5071118;28;20443;-85
2024/01/11 03:10:11;;;;;;;29.17;18.53;;;;;;;;;;5070510;28;20440;-85
2024/01/11 03:12:41;;;;;;;20.63;12.57;;;;;;;;;;5071150;28;20538;-85
2024/01/11 03:15:10;;;;;;;20.47;13.87;;;;;;;;;;5071476;28;20526;-85
2024/01/11 03:17:38;;;;;;;23.57;15.73;;;;;;;;;;5070050;28;20454;-85
2024/01/11 03:20:08;;;;;;;17.10;12.47;;;;;;;;;;5069937;28;20448;-85
2024/01/11 03:22:46;;;;;;;13.40;10.67;;;;;;;;;;5070721;28;20554;-85
2024/01/11 03:25:17;;;;;;;11.17;9.63;;;;;;;;;;5071526;28;20450;-85
2024/01/11 03:27:47;;;;;;;8.53;7.17;;;;;;;;;;5071533;28;20439;-85
2024/01/11 03:30:16;;;;;;;24.57;17.03;;;;;;;;;;5069883;28;20455;-85
2024/01/11 03:32:45;;;;;;;12.80;10.37;;;;;;;;;;5070160;28;20451;-85
2024/01/11 03:35:17;;;;;;;16.93;13.20;;;;;;;;;;5071560;28;20444;-85
2024/01/11 03:37:45;;;;;;;19.27;13.63;;;;;;;;;;5069411;28;20458;-85
2024/01/11 03:40:17;;;;;;;14.60;9.33;;;;;;;;;;5071101;28;20442;-85
2024/01/11 03:42:47;;;;;;;16.47;13.47;;;;;;;;;;5071299;28;20436;-85
2024/01/11 03:45:21;;;;;;;14.17;9.47;;;;;;;;;;5071215;28;20446;-85
2024/01/11 03:47:49;;;;;;;17.23;13.80;;;;;;;;;;5069671;28;20451;-85
2024/01/11 03:50:19;;;;;;;33.53;19.83;;;;;;;;;;5069411;28;20452;-85
2024/01/11 03:52:48;;;;;;;28.83;22.17;;;;;;;;;;5071282;28;20447;-85
2024/01/11 03:55:16;;;;;;;20.53;16.03;;;;;;;;;;5070098;28;20507;-85
2024/01/11 03:57:48;;;;;;;19.10;12.73;;;;;;;;;;5070925;28;20452;-85
2024/01/11 04:00:17;;;;;;;19.40;14.40;;;;;;;;;;5069305;28;20578;-85
2024/01/11 04:02:49;;;;;;;14.37;12.37;;;;;;;;;;5069986;28;20534;-85
2024/01/11 04:05:17;;;;;;;22.40;15.00;;;;;;;;;;5070187;28;20447;-85
2024/01/11 04:07:46;;;;;;;25.77;17.70;;;;;;;;;;5069853;28;20485;-85
2024/01/11 04:10:16;;;;;;;19.10;15.13;;;;;;;;;;5070395;28;20435;-85
2024/01/11 04:12:45;;;;;;;15.83;13.27;;;;;;;;;;5069744;28;20201;-85
2024/01/11 04:15:15;;;;;;;17.63;14.27;;;;;;;;;;5070043;28;20451;-85
2024/01/11 04:17:43;;;;;;;16.00;10.87;;;;;;;;;;5069553;28;20551;-85
2024/01/11 04:20:12;;;;;;;17.60;13.13;;;;;;;;;;5069127;28;20475;-85
2024/01/11 04:22:43;;;;;;;19.37;13.90;;;;;;;;;;5069805;28;20505;-85
2024/01/11 04:25:12;;;;;;;36.53;23.60;;;;;;;;;;5069764;28;20556;-85
2024/01/11 04:27:40;;;;;;;25.07;17.13;;;;;;;;;;5069724;28;20198;-85
2024/01/11 04:30:09;;;;;;;13.73;9.57;;;;;;;;;;5070463;28;20489;-85
2024/01/11 04:32:39;;;;;;;14.67;11.63;;;;;;;;;;5070603;28;20432;-85
2024/01/11 04:35:08;;;;;;;21.53;14.33;;;;;;;;;;5070741;28;20443;-85
2024/01/11 04:37:37;;;;;;;11.33;9.70;;;;;;;;;;5069653;28;20204;-85
2024/01/11 04:40:07;;;;;;;16.43;11.87;;;;;;;;;;5070186;28;20540;-85
2024/01/11 04:42:38;;;;;;;18.67;16.57;;;;;;;;;;5069330;28;20467;-85
2024/01/11 04:45:07;;;;;;;29.73;19.63;;;;;;;;;;5069802;28;20451;-85
2024/01/11 04:47:40;;;;;;;19.20;13.23;;;;;;;;;;5071221;28;20471;-85
2024/01/11 04:50:09;;;;;;;17.47;13.07;;;;;;;;;;5074299;28;20462;-85
2024/01/11 04:52:40;;;;;;;23.13;16.50;;;;;;;;;;5073250;28;20439;-85
2024/01/11 04:55:11;;;;;;;29.30;20.47;;;;;;;;;;5074569;28;20443;-85
2024/01/11 04:57:40;;;;;;;27.83;18.77;;;;;;;;;;5074474;28;20428;-85
2024/01/11 05:00:10;;;;;;;35.83;25.37;;;;;;;;;;5073845;28;20463;-85
2024/01/11 05:02:40;;;;;;;23.37;15.60;;;;;;;;;;5072842;28;20439;-85
2024/01/11 05:05:08;;;;;;;15.47;12.13;;;;;;;;;;5073412;28;20526;-85
2024/01/11 05:07:37;;;;;;;25.50;16.83;;;;;;;;;;5074135;28;20444;-85
2024/01/11 05:10:06;;;;;;;23.60;12.97;;;;;;;;;;5072866;28;20435;-85
2024/01/11 05:12:35;;;;;;;15.73;11.37;;;;;;;;;;5073408;28;20461;-85
2024/01/11 05:15:04;;;;;;;15.47;11.27;;;;;;;;;;5073086;28;20447;-85
2024/01/11 05:17:32;;;;;;;19.23;13.50;;;;;;;;;;5074426;28;20431;-85
2024/01/11 05:20:02;;;;;;;12.33;9.17;;;;;;;;;;5072602;28;20483;-85
2024/01/11 05:22:31;;;;;;;13.03;9.70;;;;;;;;;;5073267;28;20477;-85
2024/01/11 05:24:59;;;;;;;2.73;2.63;;;;;;;;;;5072769;28;20436;-85
2024/01/11 05:27:28;;;;;;;4.83;4.53;;;;;;;;;;5072786;28;20299;-85
2024/01/11 05:29:56;;;;;;;8.50;7.40;;;;;;;;;;5073664;28;20432;-85
2024/01/11 05:32:25;;;;;;;4.60;3.30;;;;;;;;;;5073293;28;20459;-85
2024/01/11 05:34:56;;;;;;;11.00;5.30;;;;;;;;;;5072825;28;20460;-85
2024/01/11 05:37:26;;;;;;;4.90;4.50;;;;;;;;;;5072547;28;20440;-85
2024/01/11 05:39:56;;;;;;;4.57;4.10;;;;;;;;;;5072965;28;20574;-85
2024/01/11 05:42:25;;;;;;;9.10;8.07;;;;;;;;;;5073016;28;20432;-85
2024/01/11 05:44:54;;;;;;;11.43;6.93;;;;;;;;;;5072714;28;20447;-85
2024/01/11 05:47:22;;;;;;;7.70;6.97;;;;;;;;;;5072535;28;20193;-85
2024/01/11 05:49:51;;;;;;;4.43;4.13;;;;;;;;;;5074009;28;20466;-85
2024/01/11 05:52:20;;;;;;;8.03;5.50;;;;;;;;;;5071738;28;20235;-85
2024/01/11 05:54:50;;;;;;;6.60;6.10;;;;;;;;;;5072402;28;20454;-85
2024/01/11 05:57:18;;;;;;;4.67;4.27;;;;;;;;;;5073755;28;20428;-85
2024/01/11 05:59:50;;;;;;;12.60;7.27;;;;;;;;;;5071313;28;20495;-85
2024/01/11 06:02:18;;;;;;;12.20;10.47;;;;;;;;;;5072843;28;20533;-85
2024/01/11 06:04:47;;;;;;;6.43;5.73;;;;;;;;;;5073127;28;20266;-82
2024/01/11 06:07:16;;;;;;;7.40;5.73;;;;;;;;;;5071820;28;20558;-83
2024/01/11 06:09:45;;;;;;;4.60;4.27;;;;;;;;;;5073119;28;20440;-83
2024/01/11 06:12:15;;;;;;;7.10;6.43;;;;;;;;;;5071434;28;20444;-83
2024/01/11 06:14:43;;;;;;;10.07;9.17;;;;;;;;;;5071523;28;20447;-83
2024/01/11 06:17:12;;;;;;;12.97;9.67;;;;;;;;;;5073151;28;20240;-83
2024/01/11 06:19:40;;;;;;;10.23;9.13;;;;;;;;;;5072917;28;20517;-83
2024/01/11 06:22:12;;;;;;;8.73;7.87;;;;;;;;;;5071441;28;20439;-82
2024/01/11 06:24:40;;;;;;;9.87;8.77;;;;;;;;;;5071395;28;20448;-82
2024/01/11 06:27:12;;;;;;;12.93;11.33;;;;;;;;;;5071642;28;20509;-83
2024/01/11 06:29:42;;;;;;;14.70;8.17;;;;;;;;;;5071869;28;20296;-83
2024/01/11 06:32:10;;;;;;;6.67;6.17;;;;;;;;;;5071347;28;20444;-83
2024/01/11 06:34:41;;;;;;;10.40;9.23;;;;;;;;;;5071304;28;20443;-83
2024/01/11 06:37:10;;;;;;;8.13;7.23;;;;;;;;;;5071216;28;20486;-82
2024/01/11 06:39:38;;;;;;;16.27;10.33;;;;;;;;;;5071635;28;20206;-82
2024/01/11 06:42:07;;;;;;;5.37;4.97;;;;;;;;;;5072191;28;20432;-82
2024/01/11 06:44:37;;;;;;;4.43;4.13;;;;;;;;;;5071061;28;20193;-82
2024/01/11 06:47:07;;;;;;;4.17;3.87;;;;;;;;;;5070890;28;20440;-82
2024/01/11 06:49:39;;;;;;;9.57;6.90;;;;;;;;;;5071537;28;20664;-83
2024/01/11 06:52:08;;;;;;;5.40;4.97;;;;;;;;;;5072285;28;20189;-82
2024/01/11 06:54:41;;;;;;;6.77;6.20;;;;;;;;;;5071092;28;20296;-83
2024/01/11 06:57:10;;;;;;;15.47;7.17;;;;;;;;;;5070990;28;20197;-83
2024/01/11 06:59:39;;;;;;;7.30;6.47;;;;;;;;;;5070902;28;20332;-82
2024/01/11 07:02:09;;;;;;;9.80;7.40;;;;;;;;;;5071854;28;20442;-82
2024/01/11 07:04:38;;;;;;;6.27;4.10;;;;;;;;;;5071580;28;20197;-82
2024/01/11 07:07:06;;;;;;;13.20;7.60;;;;;;;;;;5070821;28;20271;-83
2024/01/11 07:09:35;;;;;;;6.90;5.30;;;;;;;;;;5071013;28;20524;-83
2024/01/11 07:12:07;;;;;;;5.10;3.23;;;;;;;;;;5069803;28;20200;-83
2024/01/11 07:14:36;;;;;;;4.23;3.37;;;;;;;;;;5071855;28;20443;-83
2024/01/11 07:17:05;;;;;;;5.23;4.73;;;;;;;;;;5070362;28;20201;-83
2024/01/11 07:19:36;;;;;;;10.53;9.10;;;;;;;;;;5071185;28;20185;-83
2024/01/11 07:22:08;;;;;;;11.97;9.17;;;;;;;;;;5071441;28;20305;-83
2024/01/11 07:24:39;;;;;;;12.63;7.80;;;;;;;;;;5071176;28;20530;-83
2024/01/11 07:27:08;;;;;;;5.03;4.50;;;;;;;;;;5069963;28;20205;-83
2024/01/11 07:29:39;;;;;;;5.93;5.33;;;;;;;;;;5070695;28;20233;-83
2024/01/11 07:32:09;;;;;;;11.47;8.50;;;;;;;;;;5070729;28;20189;-83
2024/01/11 07:34:39;;;;;;;5.70;5.03;;;;;;;;;;5071517;28;20494;-83
2024/01/11 07:37:08;;;;;;;5.13;4.83;;;;;;;;;;5069747;28;20448;-84
2024/01/11 07:39:36;;;;;;;6.70;5.57;;;;;;;;;;5070830;28;20440;-84
2024/01/11 07:42:05;;;;;;;6.60;6.20;;;;;;;;;;5070533;28;20474;-84
2024/01/11 07:44:34;;;;;;;11.60;9.77;;;;;;;;;;5071467;28;20481;-84
2024/01/11 07:47:06;;;;;;;7.37;6.50;;;;;;;;;;5070663;28;20498;-84
2024/01/11 07:49:36;;;;;;;5.93;4.60;;;;;;;;;;5070246;28;20562;-84
2024/01/11 07:52:07;;;;;;;8.43;5.70;;;;;;;;;;5070666;28;20542;-84
2024/01/11 07:54:36;;;;;;;8.57;4.80;;;;;;;;;;5071506;28;20209;-84
2024/01/11 07:57:05;;;;;;;9.77;8.17;;;;;;;;;;5071438;28;20197;-85
2024/01/11 07:59:35;;;;;;;4.90;4.60;;;;;;;;;;5070382;28;20232;-83
2024/01/11 08:02:05;;;;;;;4.77;4.30;;;;;;;;;;5069719;28;20223;-84
2024/01/11 08:04:34;;;;;;;1.53;1.43;;;;;;;;;;5071515;28;20201;-85
2024/01/11 08:07:02;;;;;;;2.73;2.63;;;;;;;;;;5069639;28;20197;-84
2024/01/11 08:09:36;;;;;;;5.20;4.90;;;;;;;;;;5071110;28;20369;-85
2024/01/11 08:12:06;;;;;;;9.53;8.67;;;;;;;;;;5071493;28;20198;-85
2024/01/11 08:14:42;;;;;;;9.67;7.50;;;;;;;;;;5071976;28;20201;-84
2024/01/11 08:17:11;;;;;;;5.30;4.93;;;;;;;;;;5070772;28;20383;-85
2024/01/11 08:19:42;;;;;;;2.07;2.00;;;;;;;;;;5071267;28;20186;-84
2024/01/11 08:22:11;;;;;;;6.90;6.23;;;;;;;;;;5071913;28;20233;-85
2024/01/11 08:24:44;;;;;;;3.90;3.70;;;;;;;;;;5075609;28;20191;-84
2024/01/11 08:27:17;;;;;;;7.53;5.37;;;;;;;;;;5074246;28;20227;-84
2024/01/11 08:29:46;;;;;;;4.50;4.20;;;;;;;;;;5073969;28;20197;-85
2024/01/11 08:32:16;;;;;;;12.50;5.40;;;;;;;;;;5075085;28;20197;-85
2024/01/11 08:34:59;;;;;;;10.93;7.53;;;;;;;;;;5074652;28;20202;-84
2024/01/11 08:37:28;;;;;;;1.20;1.20;;;;;;;;;;5073603;28;20201;-84
2024/01/11 08:39:58;;;;;;;11.83;8.30;;;;;;;;;;5074007;28;20207;-84
2024/01/11 08:42:26;;;;;;;5.33;3.80;;;;;;;;;;5075179;28;20301;-84
2024/01/11 08:44:55;;;;;;;3.77;3.43;;;;;;;;;;5074910;28;20197;-84
2024/01/11 08:47:26;;;;;;;5.03;4.27;;;;;;;;;;5074406;28;20198;-85
2024/01/11 08:49:56;;;;;;;7.73;3.93;;;;;;;;;;5074791;28;20210;-85
2024/01/11 08:52:27;;;;;;;4.23;2.10;;;;;;;;;;5073782;28;20195;-84
2024/01/11 08:54:57;;;;;;;10.33;7.83;;;;;;;;;;5073423;28;20260;-85
2024/01/11 08:57:27;;;;;;;9.93;8.10;;;;;;;;;;5073247;28;20206;-85
2024/01/11 08:59:55;;;;;;;3.97;3.67;;;;;;;;;;5073252;28;20241;-85
2024/01/11 09:02:24;;;;;;;6.00;5.60;;;;;;;;;;5073283;28;20281;-85
2024/01/11 09:04:55;;;;;;;6.83;4.40;;;;;;;;;;5073733;28;20209;-85
2024/01/11 09:07:23;;;;;;;8.37;7.53;;;;;;;;;;5074131;28;20207;-85
2024/01/11 09:09:54;;;;;;;1.63;1.63;;;;;;;;;;5072835;28;20231;-85
2024/01/11 09:12:28;;;;;;;2.90;2.80;;;;;;;;;;5073154;28;20190;-84
2024/01/11 09:15:00;;;;;;;3.63;3.33;;;;;;;;;;5073251;28;20281;-85
2024/01/11 09:17:28;;;;;;;1.00;1.00;;;;;;;;;;5074029;28;20272;-85
2024/01/11 09:19:57;;;;;;;5.40;4.63;;;;;;;;;;5072782;28;20195;-85
2024/01/11 09:22:25;;;;;;;3.90;3.00;;;;;;;;;;5073067;28;20223;-85
2024/01/11 09:24:54;;;;;;;1.10;1.10;;;;;;;;;;5073280;28;20244;-85
2024/01/11 09:27:29;;;;;;;5.97;1.93;;;;;;;;;;5074656;28;20213;-85
2024/01/11 09:29:58;;;;;;;1.60;1.60;;;;;;;;;;5072488;28;20299;-85
2024/01/11 09:32:26;;;;;;;1.63;1.63;;;;;;;;;;5072721;28;20199;-85
2024/01/11 09:34:55;;;;;;;8.20;6.63;;;;;;;;;;5073032;28;20279;-85
2024/01/11 09:37:23;;;;;;;6.67;3.23;;;;;;;;;;5073966;28;20207;-85
2024/01/11 09:39:52;;;;;;;0.90;0.90;;;;;;;;;;5072118;28;20207;-85
2024/01/11 09:42:21;;;;;;;3.50;3.20;;;;;;;;;;5072320;28;20254;-85
2024/01/11 09:44:52;;;;;;;3.10;2.93;;;;;;;;;;5072896;28;20208;-85
2024/01/11 09:47:23;;;;;;;1.60;1.50;;;;;;;;;;5074596;28;20202;-85
2024/01/11 09:49:56;;;;;;;3.07;2.73;;;;;;;;;;5072111;28;20222;-86
2024/01/11 09:52:47;;;;;;;4.07;3.63;;;;;;;;;;5072066;28;20191;-87
2024/01/11 09:55:17;;;;;;;0.90;0.90;;;;;;;;;;5072801;28;20208;-85
2024/01/11 09:57:46;;;;;;;2.03;1.93;;;;;;;;;;5073205;28;20202;-85
2024/01/11 10:00:19;;;;;;;2.30;2.20;;;;;;;;;;5071924;28;20235;-85
2024/01/11 10:02:48;;;;;;;2.43;2.33;;;;;;;;;;5072597;28;20317;-85
2024/01/11 10:05:18;;;;;;;1.20;1.20;;;;;;;;;;5072426;28;20221;-85
2024/01/11 10:07:47;;;;;;;1.60;1.20;;;;;;;;;;5072811;28;20199;-85
2024/01/11 10:10:16;;;;;;;1.60;1.50;;;;;;;;;;5074025;28;20204;-85
2024/01/11 10:12:57;;;;;;;4.33;1.80;;;;;;;;;;5075908;28;20228;-84
2024/01/11 10:15:29;;;;;;;7.60;6.90;;;;;;;;;;5072143;28;20204;-82
2024/01/11 10:17:59;;;;;;;6.80;5.80;;;;;;;;;;5072401;28;20235;-82
2024/01/11 10:20:36;;;;;;;1.07;1.07;;;;;;;;;;5072205;28;20192;-82
2024/01/11 10:23:06;;;;;;;0.90;0.90;;;;;;;;;;5072983;28;20216;-82
2024/01/11 10:25:34;;;;;;;3.20;2.90;;;;;;;;;;5072320;28;20200;-82
2024/01/11 10:28:03;;;;;;;1.03;1.03;;;;;;;;;;5072805;28;20260;-82
2024/01/11 10:30:35;;;;;;;0.90;0.90;;;;;;;;;;5073385;28;20443;-82
2024/01/11 10:33:05;;;;;;;1.20;1.20;;;;;;;;;;5072784;28;20204;-83
2024/01/11 10:35:36;;;;;;;3.07;2.97;;;;;;;;;;5073227;28;20205;-85
2024/01/11 10:38:09;;;;;;;0.90;0.90;;;;;;;;;;5072474;28;20205;-85
2024/01/11 10:40:37;;;;;;;2.13;2.13;;;;;;;;;;5071792;28;20197;-85
2024/01/11 10:43:09;;;;;;;3.30;3.10;;;;;;;;;;5070724;28;20311;-85
2024/01/11 10:45:39;;;;;;;4.13;3.30;;;;;;;;;;5071565;28;20203;-85
2024/01/11 10:48:14;;;;;;;12.30;7.07;;;;;;;;;;5072331;28;20257;-85
2024/01/11 10:50:44;;;;;;;3.63;3.33;;;;;;;;;;5072046;28;20217;-85
2024/01/11 10:53:17;;;;;;;1.77;1.73;;;;;;;;;;5071106;28;20229;-85
2024/01/11 10:55:46;;;;;;;2.57;2.43;;;;;;;;;;5071633;28;20245;-85
2024/01/11 10:58:15;;;;;;;2.67;2.57;;;;;;;;;;5071818;28;20193;-85
2024/01/11 11:00:48;;;;;;;0.90;0.90;;;;;;;;;;5072403;28;20271;-86
2024/01/11 11:03:17;;;;;;;0.90;0.90;;;;;;;;;;5071896;28;20230;-85
2024/01/11 11:05:46;;;;;;;1.67;1.67;;;;;;;;;;5071538;28;20198;-85
2024/01/11 11:08:15;;;;;;;5.63;3.63;;;;;;;;;;5071199;28;20247;-85
2024/01/11 11:10:45;;;;;;;4.20;2.40;;;;;;;;;;5072130;28;20205;-83
2024/01/11 11:13:16;;;;;;;3.53;3.03;;;;;;;;;;5072187;28;20359;-83
2024/01/11 11:15:51;;;;;;;4.33;2.50;;;;;;;;;;5071404;28;20201;-82
2024/01/11 11:18:20;;;;;;;1.93;1.83;;;;;;;;;;5071434;28;20288;-82
2024/01/11 11:20:54;;;;;;;14.43;10.90;;;;;;;;;;5070587;28;20190;-82
2024/01/11 11:23:23;;;;;;;3.33;2.93;;;;;;;;;;5071394;28;20217;-84
2024/01/11 11:25:55;;;;;;;1.60;1.60;;;;;;;;;;5070659;28;20232;-84
2024/01/11 11:28:24;;;;;;;1.70;1.70;;;;;;;;;;5070761;28;20241;-84
2024/01/11 11:30:55;;;;;;;8.63;7.13;;;;;;;;;;5070662;28;20204;-85
2024/01/11 11:33:25;;;;;;;5.77;3.13;;;;;;;;;;5070360;28;20197;-83
2024/01/11 11:35:54;;;;;;;1.83;1.77;;;;;;;;;;5071312;28;20205;-83
2024/01/11 11:38:24;;;;;;;0.87;0.87;;;;;;;;;;5070776;28;20201;-83
2024/01/11 11:40:55;;;;;;;1.00;1.00;;;;;;;;;;5070746;28;20205;-82
2024/01/11 11:43:23;;;;;;;0.90;0.90;;;;;;;;;;5070390;28;20217;-82
2024/01/11 11:45:53;;;;;;;1.00;1.00;;;;;;;;;;5070439;28;20194;-81
2024/01/11 11:48:40;;;;;;;3.43;3.13;;;;;;;;;;5070548;28;20244;-82
2024/01/11 11:51:09;;;;;;;2.83;2.50;;;;;;;;;;5070838;28;20198;-82
2024/01/11 11:53:38;;;;;;;6.80;4.50;;;;;;;;;;5071574;28;20197;-82
2024/01/11 11:56:10;;;;;;;12.33;8.93;;;;;;;;;;5071514;28;20194;-82
2024/01/11 11:58:40;;;;;;;2.20;1.67;;;;;;;;;;5070241;28;20240;-83
2024/01/11 12:01:10;;;;;;;0.80;0.80;;;;;;;;;;5072080;28;20197;-82
2024/01/11 12:03:39;;;;;;;5.10;3.83;;;;;;;;;;5070259;28;20300;-82
2024/01/11 12:06:09;;;;;;;0.80;0.80;;;;;;;;;;5071317;28;20229;-82
2024/01/11 12:08:40;;;;;;;1.93;1.83;;;;;;;;;;5070786;28;20232;-82
2024/01/11 12:11:09;;;;;;;1.63;1.63;;;;;;;;;;5070259;28;20197;-82
2024/01/11 12:13:40;;;;;;;6.20;4.83;;;;;;;;;;5070938;28;20236;-81
2024/01/11 12:16:10;;;;;;;1.63;1.43;;;;;;;;;;5071197;28;20276;-81
2024/01/11 12:18:39;;;;;;;1.40;1.40;;;;;;;;;;5070639;28;20243;-82
2024/01/11 12:21:10;;;;;;;9.67;6.03;;;;;;;;;;5071632;28;20202;-82
2024/01/11 12:23:40;;;;;;;2.63;1.20;;;;;;;;;;5071282;28;20221;-82
2024/01/11 12:26:12;;;;;;;1.20;1.20;;;;;;;;;;5070336;28;20247;-84
2024/01/11 12:28:43;;;;;;;1.70;1.63;;;;;;;;;;5071596;28;20270;-84
2024/01/11 12:31:15;;;;;;;1.23;1.23;;;;;;;;;;5071870;28;20226;-84
2024/01/11 12:33:44;;;;;;;0.97;0.97;;;;;;;;;;5071332;28;20197;-84
2024/01/11 12:36:12;;;;;;;2.73;2.60;;;;;;;;;;5071257;28;20198;-84
2024/01/11 12:38:48;;;;;;;0.70;0.70;;;;;;;;;;5070200;28;20201;-84
2024/01/11 12:41:21;;;;;;;1.80;1.70;;;;;;;;;;5071690;28;20284;-81
2024/01/11 12:43:49;;;;;;;1.20;1.20;;;;;;;;;;5070126;28;20225;-81
2024/01/11 12:46:19;;;;;;;1.77;1.67;;;;;;;;;;5071217;28;20204;-81
2024/01/11 12:48:48;;;;;;;2.50;2.40;;;;;;;;;;5069959;28;20229;-81
2024/01/11 12:51:18;;;;;;;1.17;1.17;;;;;;;;;;5070135;28;20198;-81
2024/01/11 12:53:50;;;;;;;3.37;3.10;;;;;;;;;;5071482;28;20190;-81
2024/01/11 12:56:21;;;;;;;1.97;1.93;;;;;;;;;;5069730;28;20259;-82
2024/01/11 12:58:50;;;;;;;1.33;1.17;;;;;;;;;;5071067;28;20302;-82
2024/01/11 13:01:21;;;;;;;2.40;2.23;;;;;;;;;;5070186;28;20206;-81
2024/01/11 13:03:50;;;;;;;1.57;1.53;;;;;;;;;;5070391;28;20252;-81
2024/01/11 13:06:19;;;;;;;1.30;1.30;;;;;;;;;;5069952;28;20197;-81
2024/01/11 13:08:48;;;;;;;1.00;1.00;;;;;;;;;;5071063;28;20251;-81
2024/01/11 13:11:17;;;;;;;1.17;1.17;;;;;;;;;;5074975;28;20244;-82
2024/01/11 13:13:47;;;;;;;0.80;0.80;;;;;;;;;;5074286;28;20247;-82
2024/01/11 13:16:16;;;;;;;2.20;2.10;;;;;;;;;;5074690;28;20284;-82
2024/01/11 13:18:46;;;;;;;0.70;0.70;;;;;;;;;;5073834;28;20212;-83
2024/01/11 13:21:15;;;;;;;1.47;1.37;;;;;;;;;;5074807;28;20269;-83
2024/01/11 13:23:44;;;;;;;1.37;1.37;;;;;;;;;;5073590;28;20218;-82
2024/01/11 13:26:12;;;;;;;0.70;0.70;;;;;;;;;;5073126;28;20198;-82
2024/01/11 13:28:44;;;;;;;1.00;1.00;;;;;;;;;;5072973;28;20194;-83
2024/01/11 13:31:12;;;;;;;2.53;2.43;;;;;;;;;;5074810;28;20198;-82
2024/01/11 13:33:41;;;;;;;1.10;1.10;;;;;;;;;;5073433;28;20201;-82
2024/01/11 13:36:11;;;;;;;2.07;1.00;;;;;;;;;;5073221;28;20198;-83
2024/01/11 13:38:39;;;;;;;0.70;0.70;;;;;;;;;;5074759;28;20221;-82
2024/01/11 13:41:08;;;;;;;1.13;1.13;;;;;;;;;;5076390;28;20296;-83
2024/01/11 13:43:37;;;;;;;1.03;1.03;;;;;;;;;;5074491;28;20220;-82
2024/01/11 13:46:06;;;;;;;0.70;0.70;;;;;;;;;;5073167;28;20217;-82
2024/01/11 13:48:35;;;;;;;0.90;0.90;;;;;;;;;;5072747;28;20279;-82
2024/01/11 13:51:04;;;;;;;0.90;0.90;;;;;;;;;;5074042;28;20186;-82
2024/01/11 13:53:34;;;;;;;1.83;1.73;;;;;;;;;;5074588;28;20414;-83
2024/01/11 13:56:03;;;;;;;3.27;1.33;;;;;;;;;;5074134;28;20192;-82
2024/01/11 13:58:32;;;;;;;1.30;1.30;;;;;;;;;;5073490;28;20198;-83
2024/01/11 14:01:01;;;;;;;2.83;2.00;;;;;;;;;;5073924;28;20198;-82
2024/01/11 14:03:30;;;;;;;3.00;1.63;;;;;;;;;;5073871;28;20190;-82
2024/01/11 14:06:00;;;;;;;0.70;0.70;;;;;;;;;;5074239;28;20190;-83
2024/01/11 14:08:29;;;;;;;2.67;2.57;;;;;;;;;;5072788;28;20301;-82
2024/01/11 14:10:59;;;;;;;2.50;2.33;;;;;;;;;;5072484;28;20209;-82
2024/01/11 14:13:27;;;;;;;2.93;2.63;;;;;;;;;;5072961;28;20230;-82
2024/01/11 14:15:56;;;;;;;4.03;2.57;;;;;;;;;;5072869;28;20199;-83
2024/01/11 14:18:24;;;;;;;5.00;2.70;;;;;;;;;;5073536;28;20204;-83
2024/01/11 14:20:53;;;;;;;6.90;2.10;;;;;;;;;;5071920;28;20220;-82
2024/01/11 14:23:22;;;;;;;17.60;2.97;;;;;;;;;;5073632;28;20229;-83
2024/01/11 14:25:50;;;;;;;1.07;0.97;;;;;;;;;;5073636;28;20210;-83
2024/01/11 14:28:20;;;;;;;2.97;2.37;;;;;;;;;;5072140;28;20193;-83
2024/01/11 14:30:50;;;;;;;4.33;3.93;;;;;;;;;;5071934;28;20208;-83
2024/01/11 14:33:19;;;;;;;4.73;2.10;;;;;;;;;;5073576;28;20197;-83
2024/01/11 14:35:48;;;;;;;3.23;2.30;;;;;;;;;;5072050;28;20208;-83
2024/01/11 14:38:17;;;;;;;0.83;0.83;;;;;;;;;;5072026;28;20198;-83
2024/01/11 14:40:46;;;;;;;4.73;2.70;;;;;;;;;;5072032;28;20241;-83
2024/01/11 14:43:15;;;;;;;4.97;2.53;;;;;;;;;;5073356;28;20225;-85
2024/01/11 14:45:50;;;;;;;0.60;0.60;;;;;;;;;;5073067;28;20213;-83
2024/01/11 14:48:30;;;;;;;1.80;1.10;;;;;;;;;;5073653;28;20278;-83
2024/01/11 14:50:59;;;;;;;0.90;0.90;;;;;;;;;;5072925;28;20197;-83